sensor_id;sensor_type;location;lat;lon;timestamp;temperature;humidity
6752;DHT22;3413;47.680;9.166;2023-12-20T00:00:55;8.50;75.30
6752;DHT22;3413;47.680;9.166;2023-12-20T00:05:57;8.50;75.40
6752;DHT22;3413;47.680;9.166;2023-12-20T00:10:59;8.60;75.60
6752;DHT22;3413;47.680;9.166;2023-12-20T00:16:01;8.80;75.60
6752;DHT22;3413;47.680;9.166;2023-12-20T00:21:03;8.80;75.60
6752;DHT22;3413;47.680;9.166;2023-12-20T00:26:05;8.90;75.90
6752;DHT22;3413;47.680;9.166;2023-12-20T00:31:07;9.00;75.70
6752;DHT22;3413;47.680;9.166;2023-12-20T00:36:09;9.10;75.90
6752;DHT22;3413;47.680;9.166;2023-12-20T00:41:13;8.90;75.60
6752;DHT22;3413;47.680;9.166;2023-12-20T00:46:20;9.00;75.80
6752;DHT22;3413;47.680;9.166;2023-12-20T00:51:25;9.00;75.80
6752;DHT22;3413;47.680;9.166;2023-12-20T00:56:29;9.00;75.50
6752;DHT22;3413;47.680;9.166;2023-12-20T01:01:34;9.00;75.50
6752;DHT22;3413;47.680;9.166;2023-12-20T01:06:40;9.10;75.80
6752;DHT22;3413;47.680;9.166;2023-12-20T01:11:46;9.10;75.60
6752;DHT22;3413;47.680;9.166;2023-12-20T01:16:52;9.10;75.70
6752;DHT22;3413;47.680;9.166;2023-12-20T01:22:01;9.10;75.80
6752;DHT22;3413;47.680;9.166;2023-12-20T01:27:04;9.00;75.60
6752;DHT22;3413;47.680;9.166;2023-12-20T01:32:09;9.00;75.30
6752;DHT22;3413;47.680;9.166;2023-12-20T01:37:13;9.00;75.40
6752;DHT22;3413;47.680;9.166;2023-12-20T01:42:20;9.10;75.30
6752;DHT22;3413;47.680;9.166;2023-12-20T01:47:25;9.20;75.30
6752;DHT22;3413;47.680;9.166;2023-12-20T01:52:29;9.20;75.30
6752;DHT22;3413;47.680;9.166;2023-12-20T01:58:17;9.30;75.70
6752;DHT22;3413;47.680;9.166;2023-12-20T02:24:32;9.30;75.30
6752;DHT22;3413;47.680;9.166;2023-12-20T02:35:34;9.20;75.00
6752;DHT22;3413;47.680;9.166;2023-12-20T02:40:41;9.00;74.80
6752;DHT22;3413;47.680;9.166;2023-12-20T02:46:10;9.00;74.90
6752;DHT22;3413;47.680;9.166;2023-12-20T02:51:18;8.90;75.60
6752;DHT22;3413;47.680;9.166;2023-12-20T02:56:24;8.90;74.90
6752;DHT22;3413;47.680;9.166;2023-12-20T03:18:06;9.20;75.40
6752;DHT22;3413;47.680;9.166;2023-12-20T03:40:38;9.10;75.70
6752;DHT22;3413;47.680;9.166;2023-12-20T03:45:43;9.20;75.50
6752;DHT22;3413;47.680;9.166;2023-12-20T03:56:31;9.10;75.80
6752;DHT22;3413;47.680;9.166;2023-12-20T04:01:33;9.10;75.70
6752;DHT22;3413;47.680;9.166;2023-12-20T04:06:37;9.00;75.60
6752;DHT22;3413;47.680;9.166;2023-12-20T04:11:39;8.90;76.00
6752;DHT22;3413;47.680;9.166;2023-12-20T04:16:41;8.90;75.60
6752;DHT22;3413;47.680;9.166;2023-12-20T04:21:48;8.80;75.90
6752;DHT22;3413;47.680;9.166;2023-12-20T04:26:50;8.70;75.70
6752;DHT22;3413;47.680;9.166;2023-12-20T04:31:53;8.70;76.00
6752;DHT22;3413;47.680;9.166;2023-12-20T04:36:56;8.60;76.20
6752;DHT22;3413;47.680;9.166;2023-12-20T04:41:58;8.50;76.00
6752;DHT22;3413;47.680;9.166;2023-12-20T04:47:01;8.50;76.20
6752;DHT22;3413;47.680;9.166;2023-12-20T04:52:03;8.40;76.20
6752;DHT22;3413;47.680;9.166;2023-12-20T04:57:05;8.40;76.40
6752;DHT22;3413;47.680;9.166;2023-12-20T05:02:09;8.40;76.20
6752;DHT22;3413;47.680;9.166;2023-12-20T05:07:11;8.40;76.20
6752;DHT22;3413;47.680;9.166;2023-12-20T05:12:13;8.40;76.50
6752;DHT22;3413;47.680;9.166;2023-12-20T05:17:15;8.40;76.60
6752;DHT22;3413;47.680;9.166;2023-12-20T05:22:18;8.50;76.50
6752;DHT22;3413;47.680;9.166;2023-12-20T05:27:21;8.40;76.70
6752;DHT22;3413;47.680;9.166;2023-12-20T05:32:23;8.40;76.70
6752;DHT22;3413;47.680;9.166;2023-12-20T05:37:27;8.50;76.80
6752;DHT22;3413;47.680;9.166;2023-12-20T05:42:31;8.50;76.80
6752;DHT22;3413;47.680;9.166;2023-12-20T05:47:33;8.40;76.90
6752;DHT22;3413;47.680;9.166;2023-12-20T05:52:36;8.50;76.80
6752;DHT22;3413;47.680;9.166;2023-12-20T05:57:38;8.50;76.90
6752;DHT22;3413;47.680;9.166;2023-12-20T06:02:40;8.60;77.10
6752;DHT22;3413;47.680;9.166;2023-12-20T06:07:43;8.60;76.90
6752;DHT22;3413;47.680;9.166;2023-12-20T06:12:52;8.60;76.90
6752;DHT22;3413;47.680;9.166;2023-12-20T06:17:54;8.60;77.20
6752;DHT22;3413;47.680;9.166;2023-12-20T06:23:01;8.70;77.40
6752;DHT22;3413;47.680;9.166;2023-12-20T06:28:08;8.80;77.50
6752;DHT22;3413;47.680;9.166;2023-12-20T06:33:16;8.80;77.50
6752;DHT22;3413;47.680;9.166;2023-12-20T06:38:28;8.80;77.50
6752;DHT22;3413;47.680;9.166;2023-12-20T06:43:30;8.70;77.50
6752;DHT22;3413;47.680;9.166;2023-12-20T06:48:49;8.80;77.80
6752;DHT22;3413;47.680;9.166;2023-12-20T06:53:52;8.80;77.60
6752;DHT22;3413;47.680;9.166;2023-12-20T06:58:54;8.90;77.50
6752;DHT22;3413;47.680;9.166;2023-12-20T07:03:56;8.90;77.70
6752;DHT22;3413;47.680;9.166;2023-12-20T07:08:58;9.00;78.50
6752;DHT22;3413;47.680;9.166;2023-12-20T07:13:59;9.00;77.70
6752;DHT22;3413;47.680;9.166;2023-12-20T07:19:02;9.00;77.90
6752;DHT22;3413;47.680;9.166;2023-12-20T07:24:05;9.00;77.80
6752;DHT22;3413;47.680;9.166;2023-12-20T07:29:07;9.10;78.10
6752;DHT22;3413;47.680;9.166;2023-12-20T07:34:08;9.00;77.90
6752;DHT22;3413;47.680;9.166;2023-12-20T07:39:11;9.00;78.20
6752;DHT22;3413;47.680;9.166;2023-12-20T07:44:12;9.00;78.10
6752;DHT22;3413;47.680;9.166;2023-12-20T07:49:14;9.00;78.20
6752;DHT22;3413;47.680;9.166;2023-12-20T07:54:16;9.00;78.40
6752;DHT22;3413;47.680;9.166;2023-12-20T07:59:18;9.10;78.60
6752;DHT22;3413;47.680;9.166;2023-12-20T08:04:33;9.20;78.60
6752;DHT22;3413;47.680;9.166;2023-12-20T08:09:34;9.20;78.60
6752;DHT22;3413;47.680;9.166;2023-12-20T08:14:38;9.30;78.80
6752;DHT22;3413;47.680;9.166;2023-12-20T08:19:40;9.30;78.70
6752;DHT22;3413;47.680;9.166;2023-12-20T08:24:42;9.40;78.70
6752;DHT22;3413;47.680;9.166;2023-12-20T08:29:44;9.40;78.60
6752;DHT22;3413;47.680;9.166;2023-12-20T08:34:47;9.40;78.70
6752;DHT22;3413;47.680;9.166;2023-12-20T08:39:49;9.50;78.90
6752;DHT22;3413;47.680;9.166;2023-12-20T08:44:51;9.40;78.80
6752;DHT22;3413;47.680;9.166;2023-12-20T08:49:53;9.50;78.90
6752;DHT22;3413;47.680;9.166;2023-12-20T08:54:58;9.60;79.00
6752;DHT22;3413;47.680;9.166;2023-12-20T09:00:00;9.60;78.90
6752;DHT22;3413;47.680;9.166;2023-12-20T09:05:02;9.70;79.10
6752;DHT22;3413;47.680;9.166;2023-12-20T09:10:05;9.80;79.30
6752;DHT22;3413;47.680;9.166;2023-12-20T09:15:07;9.80;79.30
6752;DHT22;3413;47.680;9.166;2023-12-20T09:20:09;9.90;79.30
6752;DHT22;3413;47.680;9.166;2023-12-20T09:25:12;10.00;78.30
6752;DHT22;3413;47.680;9.166;2023-12-20T09:30:15;10.10;78.50
6752;DHT22;3413;47.680;9.166;2023-12-20T09:35:28;10.10;78.40
6752;DHT22;3413;47.680;9.166;2023-12-20T09:40:32;10.10;78.60
6752;DHT22;3413;47.680;9.166;2023-12-20T09:45:35;10.10;78.80
6752;DHT22;3413;47.680;9.166;2023-12-20T09:50:37;10.20;78.90
6752;DHT22;3413;47.680;9.166;2023-12-20T09:55:41;10.20;78.80
6752;DHT22;3413;47.680;9.166;2023-12-20T10:00:43;10.10;78.60
6752;DHT22;3413;47.680;9.166;2023-12-20T10:05:45;10.10;78.70
6752;DHT22;3413;47.680;9.166;2023-12-20T10:10:49;10.20;78.80
6752;DHT22;3413;47.680;9.166;2023-12-20T10:15:51;10.20;78.70
6752;DHT22;3413;47.680;9.166;2023-12-20T10:20:53;10.30;78.90
6752;DHT22;3413;47.680;9.166;2023-12-20T10:25:59;10.40;79.00
6752;DHT22;3413;47.680;9.166;2023-12-20T10:31:01;10.40;79.10
6752;DHT22;3413;47.680;9.166;2023-12-20T10:36:04;10.40;79.20
6752;DHT22;3413;47.680;9.166;2023-12-20T10:41:09;10.40;79.20
6752;DHT22;3413;47.680;9.166;2023-12-20T10:46:11;10.40;79.40
6752;DHT22;3413;47.680;9.166;2023-12-20T10:51:17;10.50;79.40
6752;DHT22;3413;47.680;9.166;2023-12-20T10:56:20;10.50;79.20
6752;DHT22;3413;47.680;9.166;2023-12-20T11:01:29;10.50;79.20
6752;DHT22;3413;47.680;9.166;2023-12-20T11:06:51;10.50;79.40
6752;DHT22;3413;47.680;9.166;2023-12-20T11:12:16;10.70;79.60
6752;DHT22;3413;47.680;9.166;2023-12-20T11:17:21;10.70;79.30
6752;DHT22;3413;47.680;9.166;2023-12-20T11:22:27;10.70;79.60
6752;DHT22;3413;47.680;9.166;2023-12-20T11:27:30;10.80;79.80
6752;DHT22;3413;47.680;9.166;2023-12-20T11:32:36;11.00;79.50
6752;DHT22;3413;47.680;9.166;2023-12-20T11:37:40;11.20;79.40
6752;DHT22;3413;47.680;9.166;2023-12-20T11:42:48;11.50;80.70
6752;DHT22;3413;47.680;9.166;2023-12-20T11:47:51;12.00;81.60
6752;DHT22;3413;47.680;9.166;2023-12-20T11:52:55;12.30;82.00
6752;DHT22;3413;47.680;9.166;2023-12-20T11:57:57;12.70;82.00
6752;DHT22;3413;47.680;9.166;2023-12-20T12:02:59;12.60;80.80
6752;DHT22;3413;47.680;9.166;2023-12-20T12:08:02;12.30;80.20
6752;DHT22;3413;47.680;9.166;2023-12-20T12:13:06;12.00;79.70
6752;DHT22;3413;47.680;9.166;2023-12-20T12:18:08;11.70;79.70
6752;DHT22;3413;47.680;9.166;2023-12-20T12:23:12;11.80;80.60
6752;DHT22;3413;47.680;9.166;2023-12-20T12:28:13;12.40;81.50
6752;DHT22;3413;47.680;9.166;2023-12-20T12:33:15;12.60;80.50
6752;DHT22;3413;47.680;9.166;2023-12-20T12:38:23;12.50;80.50
6752;DHT22;3413;47.680;9.166;2023-12-20T12:43:26;12.30;79.90
6752;DHT22;3413;47.680;9.166;2023-12-20T12:48:31;12.10;79.70
6752;DHT22;3413;47.680;9.166;2023-12-20T12:53:37;11.90;79.60
6752;DHT22;3413;47.680;9.166;2023-12-20T12:58:46;12.10;80.20
6752;DHT22;3413;47.680;9.166;2023-12-20T13:04:08;12.10;79.50
6752;DHT22;3413;47.680;9.166;2023-12-20T13:09:25;11.90;79.10
6752;DHT22;3413;47.680;9.166;2023-12-20T13:14:28;11.80;79.50
6752;DHT22;3413;47.680;9.166;2023-12-20T13:19:31;12.00;79.80
6752;DHT22;3413;47.680;9.166;2023-12-20T13:41:12;12.30;80.00
6752;DHT22;3413;47.680;9.166;2023-12-20T13:46:15;12.60;80.10
6752;DHT22;3413;47.680;9.166;2023-12-20T14:02:22;12.10;79.00
6752;DHT22;3413;47.680;9.166;2023-12-20T14:07:25;11.80;78.50
6752;DHT22;3413;47.680;9.166;2023-12-20T14:17:59;11.50;78.30
6752;DHT22;3413;47.680;9.166;2023-12-20T14:23:03;11.40;78.00
6752;DHT22;3413;47.680;9.166;2023-12-20T14:28:06;11.20;77.40
6752;DHT22;3413;47.680;9.166;2023-12-20T14:33:09;11.20;77.50
6752;DHT22;3413;47.680;9.166;2023-12-20T14:38:11;10.90;77.00
6752;DHT22;3413;47.680;9.166;2023-12-20T14:43:17;10.90;77.20
6752;DHT22;3413;47.680;9.166;2023-12-20T14:48:20;10.90;77.10
6752;DHT22;3413;47.680;9.166;2023-12-20T14:53:26;10.90;76.90
6752;DHT22;3413;47.680;9.166;2023-12-20T14:58:28;10.70;76.60
6752;DHT22;3413;47.680;9.166;2023-12-20T15:03:32;10.50;76.30
6752;DHT22;3413;47.680;9.166;2023-12-20T15:08:35;10.40;76.20
6752;DHT22;3413;47.680;9.166;2023-12-20T15:13:38;10.50;76.20
6752;DHT22;3413;47.680;9.166;2023-12-20T15:18:43;10.50;76.10
6752;DHT22;3413;47.680;9.166;2023-12-20T15:23:46;10.50;75.90
6752;DHT22;3413;47.680;9.166;2023-12-20T15:28:54;10.50;75.80
6752;DHT22;3413;47.680;9.166;2023-12-20T15:33:59;10.40;75.80
6752;DHT22;3413;47.680;9.166;2023-12-20T15:39:02;10.40;75.30
6752;DHT22;3413;47.680;9.166;2023-12-20T15:44:06;10.30;75.10
6752;DHT22;3413;47.680;9.166;2023-12-20T15:49:08;10.10;75.10
6752;DHT22;3413;47.680;9.166;2023-12-20T15:54:15;10.00;74.90
6752;DHT22;3413;47.680;9.166;2023-12-20T15:59:18;10.00;75.10
6752;DHT22;3413;47.680;9.166;2023-12-20T16:04:20;9.90;75.70
6752;DHT22;3413;47.680;9.166;2023-12-20T16:09:22;9.70;75.90
6752;DHT22;3413;47.680;9.166;2023-12-20T16:14:24;9.70;76.10
6752;DHT22;3413;47.680;9.166;2023-12-20T16:19:30;9.80;76.10
6752;DHT22;3413;47.680;9.166;2023-12-20T16:24:32;9.60;75.80
6752;DHT22;3413;47.680;9.166;2023-12-20T16:29:34;9.60;75.90
6752;DHT22;3413;47.680;9.166;2023-12-20T16:34:36;9.50;75.90
6752;DHT22;3413;47.680;9.166;2023-12-20T16:39:38;9.40;75.90
6752;DHT22;3413;47.680;9.166;2023-12-20T16:44:41;9.20;75.60
6752;DHT22;3413;47.680;9.166;2023-12-20T16:49:43;9.10;75.60
6752;DHT22;3413;47.680;9.166;2023-12-20T16:54:45;8.90;75.50
6752;DHT22;3413;47.680;9.166;2023-12-20T16:59:47;8.70;75.40
6752;DHT22;3413;47.680;9.166;2023-12-20T17:04:49;8.70;75.40
6752;DHT22;3413;47.680;9.166;2023-12-20T17:09:51;8.50;74.90
6752;DHT22;3413;47.680;9.166;2023-12-20T17:14:53;8.30;74.70
6752;DHT22;3413;47.680;9.166;2023-12-20T17:19:55;8.30;74.80
6752;DHT22;3413;47.680;9.166;2023-12-20T17:24:59;8.20;74.80
6752;DHT22;3413;47.680;9.166;2023-12-20T17:30:01;8.10;74.70
6752;DHT22;3413;47.680;9.166;2023-12-20T17:35:03;8.10;74.70
6752;DHT22;3413;47.680;9.166;2023-12-20T17:40:06;8.10;74.90
6752;DHT22;3413;47.680;9.166;2023-12-20T17:45:09;8.10;74.60
6752;DHT22;3413;47.680;9.166;2023-12-20T17:50:14;8.10;74.70
6752;DHT22;3413;47.680;9.166;2023-12-20T17:55:19;8.10;74.70
6752;DHT22;3413;47.680;9.166;2023-12-20T18:00:25;8.10;74.80
6752;DHT22;3413;47.680;9.166;2023-12-20T18:05:28;8.20;74.90
6752;DHT22;3413;47.680;9.166;2023-12-20T18:10:30;8.20;74.70
6752;DHT22;3413;47.680;9.166;2023-12-20T18:15:35;8.00;74.70
6752;DHT22;3413;47.680;9.166;2023-12-20T18:20:40;8.10;74.90
6752;DHT22;3413;47.680;9.166;2023-12-20T18:25:42;8.00;74.40
6752;DHT22;3413;47.680;9.166;2023-12-20T18:30:46;8.00;74.50
6752;DHT22;3413;47.680;9.166;2023-12-20T18:35:48;8.00;74.40
6752;DHT22;3413;47.680;9.166;2023-12-20T18:40:50;8.00;74.40
6752;DHT22;3413;47.680;9.166;2023-12-20T18:45:53;8.00;74.40
6752;DHT22;3413;47.680;9.166;2023-12-20T18:50:58;8.00;74.40
6752;DHT22;3413;47.680;9.166;2023-12-20T18:56:00;8.00;74.30
6752;DHT22;3413;47.680;9.166;2023-12-20T19:01:02;8.00;74.30
6752;DHT22;3413;47.680;9.166;2023-12-20T19:06:06;7.90;74.30
6752;DHT22;3413;47.680;9.166;2023-12-20T19:11:08;7.90;74.30
6752;DHT22;3413;47.680;9.166;2023-12-20T19:16:11;7.80;74.10
6752;DHT22;3413;47.680;9.166;2023-12-20T19:21:13;7.80;74.10
6752;DHT22;3413;47.680;9.166;2023-12-20T19:26:16;7.80;74.10
6752;DHT22;3413;47.680;9.166;2023-12-20T19:31:18;7.80;74.10
6752;DHT22;3413;47.680;9.166;2023-12-20T19:36:23;7.80;74.20
6752;DHT22;3413;47.680;9.166;2023-12-20T19:41:26;7.80;74.10
6752;DHT22;3413;47.680;9.166;2023-12-20T19:46:29;7.80;74.30
6752;DHT22;3413;47.680;9.166;2023-12-20T19:51:31;7.90;74.20
6752;DHT22;3413;47.680;9.166;2023-12-20T19:56:33;7.90;74.30
6752;DHT22;3413;47.680;9.166;2023-12-20T20:01:35;8.00;75.00
6752;DHT22;3413;47.680;9.166;2023-12-20T20:06:42;8.00;74.20
6752;DHT22;3413;47.680;9.166;2023-12-20T20:11:46;8.00;74.50
6752;DHT22;3413;47.680;9.166;2023-12-20T20:16:49;8.10;74.50
6752;DHT22;3413;47.680;9.166;2023-12-20T20:22:00;8.10;74.50
6752;DHT22;3413;47.680;9.166;2023-12-20T20:27:03;8.20;74.50
6752;DHT22;3413;47.680;9.166;2023-12-20T20:32:44;8.20;74.50
6752;DHT22;3413;47.680;9.166;2023-12-20T20:38:09;8.20;74.50
6752;DHT22;3413;47.680;9.166;2023-12-20T20:43:51;8.20;74.30
6752;DHT22;3413;47.680;9.166;2023-12-20T20:49:00;8.20;74.40
6752;DHT22;3413;47.680;9.166;2023-12-20T20:54:37;8.20;74.30
6752;DHT22;3413;47.680;9.166;2023-12-20T20:59:41;8.30;74.30
6752;DHT22;3413;47.680;9.166;2023-12-20T21:04:46;8.20;74.20
6752;DHT22;3413;47.680;9.166;2023-12-20T21:09:52;8.20;74.20
6752;DHT22;3413;47.680;9.166;2023-12-20T21:14:55;8.20;74.00
6752;DHT22;3413;47.680;9.166;2023-12-20T21:19:58;8.20;74.00
6752;DHT22;3413;47.680;9.166;2023-12-20T21:25:01;8.20;74.00
6752;DHT22;3413;47.680;9.166;2023-12-20T21:30:04;8.20;73.90
6752;DHT22;3413;47.680;9.166;2023-12-20T21:35:07;8.20;74.10
6752;DHT22;3413;47.680;9.166;2023-12-20T21:40:11;8.20;73.90
6752;DHT22;3413;47.680;9.166;2023-12-20T21:45:14;8.20;73.90
6752;DHT22;3413;47.680;9.166;2023-12-20T21:50:16;8.10;73.90
6752;DHT22;3413;47.680;9.166;2023-12-20T21:55:18;8.30;74.10
6752;DHT22;3413;47.680;9.166;2023-12-20T22:00:20;8.20;73.70
6752;DHT22;3413;47.680;9.166;2023-12-20T22:05:22;8.20;73.90
6752;DHT22;3413;47.680;9.166;2023-12-20T22:10:27;8.30;73.90
6752;DHT22;3413;47.680;9.166;2023-12-20T22:15:29;8.30;73.90
6752;DHT22;3413;47.680;9.166;2023-12-20T22:20:31;8.30;73.90
6752;DHT22;3413;47.680;9.166;2023-12-20T22:25:33;8.20;73.90
6752;DHT22;3413;47.680;9.166;2023-12-20T22:30:36;8.30;74.10
6752;DHT22;3413;47.680;9.166;2023-12-20T22:35:40;8.30;73.70
6752;DHT22;3413;47.680;9.166;2023-12-20T22:40:45;8.40;73.90
6752;DHT22;3413;47.680;9.166;2023-12-20T22:45:47;8.40;73.80
6752;DHT22;3413;47.680;9.166;2023-12-20T22:50:49;8.40;73.60
6752;DHT22;3413;47.680;9.166;2023-12-20T22:55:52;8.30;73.80
6752;DHT22;3413;47.680;9.166;2023-12-20T23:00:54;8.30;73.80
6752;DHT22;3413;47.680;9.166;2023-12-20T23:06:02;8.20;73.80
6752;DHT22;3413;47.680;9.166;2023-12-20T23:11:26;8.20;73.90
6752;DHT22;3413;47.680;9.166;2023-12-20T23:16:30;8.20;74.00
6752;DHT22;3413;47.680;9.166;2023-12-20T23:21:33;8.30;74.10
6752;DHT22;3413;47.680;9.166;2023-12-20T23:26:38;8.30;74.10
6752;DHT22;3413;47.680;9.166;2023-12-20T23:31:41;8.30;74.20
6752;DHT22;3413;47.680;9.166;2023-12-20T23:37:05;8.30;74.10
6752;DHT22;3413;47.680;9.166;2023-12-20T23:42:08;8.30;74.10
6752;DHT22;3413;47.680;9.166;2023-12-20T23:47:11;8.40;74.20
6752;DHT22;3413;47.680;9.166;2023-12-20T23:52:27;8.40;74.10
6752;DHT22;3413;47.680;9.166;2023-12-20T23:57:33;8.40;74.20
